Terminal Aerodrome Forecast
Issued by NWS

Home | Current Version | Previous Version | Text Only | Print | Product List | Glossary Off
Versions: 1 2 3 4 5 6 7 8 9 10 11 12 13 14 15 16

283
FTUS43 KMPX 290520
TAFRWF
TAF
KRWF 290520Z 2906/3006 30006KT P6SM OVC090
     FM290900 27005KT P6SM SCT025 BKN060
     FM291600 28012G19KT P6SM SCT080
     FM300200 29006KT P6SM SKC=

USA.gov is the U.S. government's official web portal to all federal, state and local government web resources and services.